createdAt,value
2023-03-16T00:00:16.536Z,2.00
2023-03-16T00:02:43.988Z,1.85
2023-03-16T00:05:12.946Z,1.60
2023-03-16T00:07:41.862Z,1.90
2023-03-16T00:10:12.254Z,1.83
2023-03-16T00:12:39.740Z,1.60
2023-03-16T00:15:07.090Z,2.15
2023-03-16T00:17:34.679Z,1.90
2023-03-16T00:20:07.012Z,2.20
2023-03-16T00:22:34.331Z,1.80
2023-03-16T00:25:01.680Z,2.10
2023-03-16T00:27:28.413Z,2.28
2023-03-16T00:29:57.838Z,2.00
2023-03-16T00:32:27.091Z,2.10
2023-03-16T00:34:54.220Z,1.90
2023-03-16T00:37:23.284Z,1.83
2023-03-16T00:39:51.314Z,1.95
2023-03-16T00:42:19.562Z,2.03
2023-03-16T00:44:46.226Z,1.95
2023-03-16T00:47:14.468Z,1.55
2023-03-16T00:49:43.038Z,1.80
2023-03-16T00:52:14.556Z,1.73
2023-03-16T00:57:14.078Z,1.50
2023-03-16T00:59:41.180Z,2.00
2023-03-16T01:02:09.039Z,1.88
2023-03-16T01:04:39.796Z,1.67
2023-03-16T01:07:08.367Z,1.80
2023-03-16T01:09:36.839Z,1.80
2023-03-16T01:12:09.646Z,1.98
2023-03-16T01:14:36.891Z,1.60
2023-03-16T01:17:07.081Z,1.75
2023-03-16T01:19:35.727Z,1.55
2023-03-16T01:22:06.369Z,1.83
2023-03-16T01:24:34.884Z,1.80
2023-03-16T01:27:02.032Z,1.80
2023-03-16T01:29:28.848Z,1.92
2023-03-16T01:31:56.131Z,1.63
2023-03-16T01:34:23.747Z,1.90
2023-03-16T01:36:51.660Z,1.52
2023-03-16T01:39:18.585Z,1.58
2023-03-16T01:41:47.373Z,1.90
2023-03-16T01:44:20.197Z,1.73
2023-03-16T01:46:46.943Z,1.70
2023-03-16T01:49:23.990Z,1.83
2023-03-16T01:52:19.531Z,1.85
2023-03-16T01:54:49.896Z,1.90
2023-03-16T01:57:26.029Z,1.90
2023-03-16T02:00:06.465Z,1.85
2023-03-16T02:02:33.507Z,1.95
2023-03-16T02:05:07.081Z,2.08
2023-03-16T02:07:42.402Z,1.95
2023-03-16T02:10:10.644Z,1.70
2023-03-16T02:12:37.788Z,1.92
2023-03-16T02:15:04.920Z,2.10
2023-03-16T02:17:33.961Z,2.03
2023-03-16T02:20:10.231Z,1.75
2023-03-16T02:22:42.732Z,1.75
2023-03-16T02:25:10.745Z,2.03
2023-03-16T02:28:10.767Z,2.30
2023-03-16T02:30:37.691Z,1.90
2023-03-16T02:33:05.240Z,1.80
2023-03-16T02:35:32.859Z,1.90
2023-03-16T02:38:00.029Z,1.80
2023-03-16T02:40:32.716Z,1.90
2023-03-16T02:43:18.883Z,1.63
2023-03-16T02:45:58.915Z,1.80
2023-03-16T02:48:28.595Z,1.90
2023-03-16T02:50:55.488Z,1.58
2023-03-16T02:53:22.897Z,1.50
2023-03-16T02:55:49.579Z,1.80
2023-03-16T02:58:17.438Z,1.80
2023-03-16T03:00:45.316Z,1.55
2023-03-16T03:03:12.288Z,1.75
2023-03-16T03:05:38.994Z,1.50
2023-03-16T03:08:06.595Z,1.90
2023-03-16T03:10:33.331Z,1.65
2023-03-16T03:13:00.224Z,1.58
2023-03-16T03:15:27.068Z,1.60
2023-03-16T03:17:53.900Z,1.70
2023-03-16T03:20:21.591Z,1.45
2023-03-16T03:22:49.921Z,1.80
2023-03-16T03:25:18.419Z,1.70
2023-03-16T03:27:46.092Z,1.80
2023-03-16T03:30:15.997Z,1.88
2023-03-16T03:32:44.123Z,1.63
2023-03-16T03:35:12.611Z,1.55
2023-03-16T03:37:44.264Z,1.60
2023-03-16T03:40:13.875Z,1.60
2023-03-16T03:42:41.610Z,1.90
2023-03-16T03:45:09.555Z,1.50
2023-03-16T03:47:36.194Z,1.77
2023-03-16T03:50:02.799Z,1.70
2023-03-16T03:52:29.739Z,1.55
2023-03-16T03:54:56.438Z,1.48
2023-03-16T03:57:23.137Z,1.60
2023-03-16T03:59:49.852Z,1.60
2023-03-16T04:02:16.642Z,1.60
2023-03-16T04:04:44.223Z,1.60
2023-03-16T04:07:11.672Z,1.73
2023-03-16T04:09:38.614Z,1.80
2023-03-16T04:12:06.361Z,1.75
2023-03-16T04:14:33.152Z,1.60
2023-03-16T04:16:59.861Z,2.08
2023-03-16T04:19:26.934Z,1.55
2023-03-16T04:21:53.759Z,1.40
2023-03-16T04:24:22.270Z,1.85
2023-03-16T04:26:49.088Z,1.55
2023-03-16T04:29:19.356Z,2.08
2023-03-16T04:31:46.564Z,1.60
2023-03-16T04:34:13.846Z,1.70
2023-03-16T04:36:41.758Z,1.50
2023-03-16T04:39:09.776Z,1.60
2023-03-16T04:41:36.857Z,1.77
2023-03-16T04:44:04.620Z,1.70
2023-03-16T04:46:31.691Z,1.70
2023-03-16T04:48:58.723Z,1.80
2023-03-16T04:51:26.825Z,1.77
2023-03-16T04:53:53.993Z,1.60
2023-03-16T04:56:20.956Z,1.70
2023-03-16T04:58:49.374Z,1.58
2023-03-16T05:01:17.403Z,1.60
2023-03-16T05:03:44.660Z,1.40
2023-03-16T05:06:12.412Z,1.55
2023-03-16T05:08:39.367Z,1.60
2023-03-16T05:11:06.072Z,1.67
2023-03-16T05:13:33.628Z,1.50
2023-03-16T05:16:00.938Z,1.50
2023-03-16T05:18:27.726Z,1.77
2023-03-16T05:20:56.078Z,1.65
2023-03-16T05:23:23.855Z,1.45
2023-03-16T05:25:51.080Z,1.65
2023-03-16T05:28:18.008Z,1.40
2023-03-16T05:30:47.496Z,1.50
2023-03-16T05:33:14.228Z,1.30
2023-03-16T05:35:40.994Z,1.75
2023-03-16T05:38:09.071Z,1.70
2023-03-16T05:40:37.297Z,1.52
2023-03-16T05:43:04.488Z,1.25
2023-03-16T05:45:31.391Z,1.45
2023-03-16T05:47:58.148Z,1.50
2023-03-16T05:50:26.569Z,1.70
2023-03-16T05:52:54.241Z,1.45
2023-03-16T05:55:20.921Z,1.40
2023-03-16T05:57:47.561Z,1.40
2023-03-16T06:00:16.359Z,1.58
2023-03-16T06:02:46.915Z,1.40
2023-03-16T06:05:14.027Z,1.50
2023-03-16T06:07:41.591Z,1.75
2023-03-16T06:10:09.460Z,1.27
2023-03-16T06:12:36.074Z,1.42
2023-03-16T06:15:07.214Z,1.45
2023-03-16T06:17:35.245Z,1.30
2023-03-16T06:20:02.098Z,1.40
2023-03-16T06:22:30.263Z,1.65
2023-03-16T06:24:57.169Z,1.30
2023-03-16T06:27:26.422Z,1.48
2023-03-16T06:29:53.218Z,1.52
2023-03-16T06:32:20.320Z,1.50
2023-03-16T06:34:46.950Z,1.67
2023-03-16T06:37:13.892Z,1.30
2023-03-16T06:39:40.970Z,1.45
2023-03-16T06:42:07.674Z,1.38
2023-03-16T06:44:34.273Z,1.50
2023-03-16T06:47:01.217Z,1.52
2023-03-16T06:49:28.141Z,1.55
2023-03-16T06:51:55.016Z,1.30
2023-03-16T06:54:21.714Z,1.52
2023-03-16T06:56:48.411Z,1.38
2023-03-16T06:59:15.008Z,1.48
2023-03-16T07:01:42.489Z,1.45
2023-03-16T07:04:09.171Z,1.40
2023-03-16T07:06:35.989Z,1.20
2023-03-16T07:09:05.011Z,1.40
2023-03-16T07:11:32.683Z,1.33
2023-03-16T07:13:59.519Z,1.33
2023-03-16T07:16:26.363Z,1.48
2023-03-16T07:18:53.119Z,1.30
2023-03-16T07:21:20.030Z,1.58
2023-03-16T07:23:46.700Z,1.42
2023-03-16T07:26:13.953Z,1.75
2023-03-16T07:28:40.773Z,1.30
2023-03-16T07:31:09.548Z,1.20
2023-03-16T07:33:36.584Z,1.58
2023-03-16T07:36:04.440Z,1.10
2023-03-16T07:38:32.716Z,1.10
2023-03-16T07:41:02.237Z,1.20
2023-03-16T07:43:29.393Z,1.10
2023-03-16T07:45:56.279Z,1.20
2023-03-16T07:48:22.992Z,1.23
2023-03-16T07:50:50.071Z,1.23
2023-03-16T07:53:17.103Z,1.25
2023-03-16T07:55:44.635Z,1.20
2023-03-16T07:58:12.089Z,1.20
2023-03-16T08:00:39.489Z,1.30
2023-03-16T08:03:06.789Z,1.08
2023-03-16T08:05:33.787Z,1.05
2023-03-16T08:08:01.832Z,1.65
2023-03-16T08:10:29.176Z,1.38
2023-03-16T08:12:56.130Z,1.30
2023-03-16T08:15:23.798Z,1.15
2023-03-16T08:17:50.634Z,1.10
2023-03-16T08:20:19.026Z,1.23
2023-03-16T08:22:46.698Z,1.15
2023-03-16T08:25:14.400Z,1.30
2023-03-16T08:27:42.968Z,1.15
2023-03-16T08:30:12.561Z,1.30
2023-03-16T08:32:40.847Z,1.30
2023-03-16T08:35:09.816Z,1.10
2023-03-16T08:37:36.972Z,1.33
2023-03-16T08:40:06.459Z,1.50
2023-03-16T08:42:33.212Z,1.05
2023-03-16T08:45:00.946Z,1.10
2023-03-16T08:47:27.599Z,1.15
2023-03-16T08:49:54.220Z,1.42
2023-03-16T08:52:22.903Z,1.45
2023-03-16T08:55:02.369Z,0.95
2023-03-16T08:57:29.982Z,1.30
2023-03-16T08:59:56.596Z,1.20
2023-03-16T09:02:23.306Z,1.13
2023-03-16T09:04:50.456Z,1.30
2023-03-16T09:07:17.160Z,2.22
2023-03-16T09:09:44.004Z,1.40
2023-03-16T09:12:11.335Z,1.20
2023-03-16T09:14:38.491Z,1.10
2023-03-16T09:17:07.774Z,1.30
2023-03-16T09:19:50.108Z,1.00
2023-03-16T09:22:19.552Z,1.30
2023-03-16T09:24:46.434Z,1.30
2023-03-16T09:27:13.162Z,1.08
2023-03-16T09:29:41.043Z,1.15
2023-03-16T09:32:08.706Z,1.15
2023-03-16T09:34:35.452Z,1.15
2023-03-16T09:37:02.545Z,1.30
2023-03-16T09:39:29.334Z,1.40
2023-03-16T09:42:04.411Z,1.23
2023-03-16T09:44:59.429Z,1.25
2023-03-16T09:47:29.534Z,1.30
2023-03-16T09:50:00.872Z,1.23
2023-03-16T09:52:56.567Z,1.05
2023-03-16T09:55:35.131Z,1.33
2023-03-16T09:58:06.878Z,1.27
2023-03-16T10:00:59.475Z,1.20
2023-03-16T10:03:35.878Z,1.13
2023-03-16T10:06:06.579Z,1.10
2023-03-16T10:08:40.935Z,1.10
2023-03-16T10:11:19.246Z,1.00
2023-03-16T10:14:17.640Z,1.70
2023-03-16T10:16:51.327Z,1.20
2023-03-16T10:19:29.703Z,1.10
2023-03-16T10:21:58.429Z,1.13
2023-03-16T10:24:43.263Z,1.20
2023-03-16T10:27:21.085Z,1.77
2023-03-16T10:29:48.606Z,1.08
2023-03-16T10:32:18.884Z,1.38
2023-03-16T10:34:56.404Z,1.48
2023-03-16T10:37:25.758Z,0.90
2023-03-16T10:39:52.515Z,1.48
2023-03-16T10:42:21.359Z,1.30
2023-03-16T10:44:48.212Z,1.30
2023-03-16T10:47:28.711Z,1.30
2023-03-16T10:49:55.615Z,1.13
2023-03-16T10:52:39.968Z,1.27
2023-03-16T10:55:23.065Z,1.27
2023-03-16T10:57:53.617Z,1.30
2023-03-16T11:00:31.073Z,0.90
2023-03-16T11:02:59.781Z,1.33
2023-03-16T11:05:34.722Z,1.17
2023-03-16T11:08:10.707Z,1.83
2023-03-16T11:10:54.584Z,1.45
2023-03-16T11:13:22.721Z,1.00
2023-03-16T11:16:05.281Z,1.15
2023-03-16T11:18:44.323Z,1.45
2023-03-16T11:21:38.528Z,1.30
2023-03-16T11:24:10.952Z,1.23
2023-03-16T11:26:40.389Z,1.30
2023-03-16T11:29:20.686Z,1.45
2023-03-16T11:32:11.960Z,1.17
2023-03-16T11:34:39.217Z,1.10
2023-03-16T11:37:32.708Z,1.20
2023-03-16T11:40:15.342Z,1.10
2023-03-16T11:43:22.123Z,1.42
2023-03-16T11:46:01.495Z,1.30
2023-03-16T11:49:00.154Z,1.50
2023-03-16T11:51:42.304Z,1.15
2023-03-16T11:54:18.621Z,1.15
2023-03-16T11:57:03.441Z,0.90
2023-03-16T12:00:00.594Z,1.20
2023-03-16T12:02:46.802Z,1.10
2023-03-16T12:05:16.818Z,1.30
2023-03-16T12:08:14.655Z,1.20
2023-03-16T12:10:57.079Z,1.30
2023-03-16T12:13:53.339Z,1.00
2023-03-16T12:16:31.022Z,1.08
2023-03-16T12:19:07.051Z,1.30
2023-03-16T12:21:39.479Z,1.23
2023-03-16T12:24:11.347Z,1.17
2023-03-16T12:26:41.955Z,1.35
2023-03-16T12:29:33.597Z,1.03
2023-03-16T12:32:22.329Z,1.38
2023-03-16T12:34:57.007Z,1.40
2023-03-16T12:38:17.634Z,1.05
2023-03-16T12:40:47.270Z,1.30
2023-03-16T12:43:14.556Z,1.00
2023-03-16T12:46:11.255Z,1.27
2023-03-16T12:48:47.514Z,1.17
2023-03-16T12:51:14.295Z,1.00
2023-03-16T12:53:46.939Z,1.38
2023-03-16T12:56:17.698Z,1.33
2023-03-16T12:58:48.439Z,1.20
2023-03-16T13:01:18.887Z,1.20
2023-03-16T13:03:50.389Z,1.00
2023-03-16T13:08:52.374Z,1.20
2023-03-16T13:11:19.243Z,1.00
2023-03-16T13:14:16.346Z,1.05
2023-03-16T13:16:45.367Z,1.23
2023-03-16T13:19:25.988Z,1.30
2023-03-16T13:22:51.217Z,1.20
2023-03-16T13:25:43.052Z,0.90
2023-03-16T13:30:47.237Z,1.30
2023-03-16T13:33:21.861Z,1.05
2023-03-16T13:35:51.248Z,1.20
2023-03-16T13:38:20.678Z,1.00
2023-03-16T13:40:50.280Z,1.10
2023-03-16T13:43:19.427Z,1.10
2023-03-16T13:45:47.059Z,1.20
2023-03-16T13:48:15.307Z,1.10
2023-03-16T13:50:43.336Z,1.35
2023-03-16T13:53:24.619Z,1.00
2023-03-16T13:55:52.756Z,1.00
2023-03-16T13:58:26.596Z,1.10
2023-03-16T14:00:58.461Z,1.00
2023-03-16T14:03:36.065Z,1.00
2023-03-16T14:06:07.065Z,1.20
2023-03-16T14:08:34.673Z,1.00
2023-03-16T14:11:02.582Z,1.20
2023-03-16T14:13:29.609Z,1.00
2023-03-16T14:16:08.383Z,1.10
2023-03-16T14:18:44.635Z,0.90
2023-03-16T14:21:35.701Z,1.02
2023-03-16T14:24:07.737Z,1.15
2023-03-16T14:26:42.770Z,1.05
2023-03-16T14:29:28.417Z,1.45
2023-03-16T14:31:55.527Z,0.90
2023-03-16T14:34:29.869Z,1.10
2023-03-16T14:37:15.812Z,1.13
2023-03-16T14:39:43.408Z,1.00
2023-03-16T14:42:24.532Z,1.00
2023-03-16T14:44:51.541Z,1.20
2023-03-16T14:47:28.622Z,1.10
2023-03-16T14:49:59.782Z,1.13
2023-03-16T14:52:31.507Z,1.13
2023-03-16T14:54:59.850Z,1.30
2023-03-16T14:57:27.437Z,1.00
2023-03-16T14:59:54.764Z,1.00
2023-03-16T15:02:28.744Z,1.10
2023-03-16T15:04:57.002Z,1.00
2023-03-16T15:07:27.251Z,1.08
2023-03-16T15:09:56.423Z,1.00
2023-03-16T15:12:25.039Z,1.15
2023-03-16T15:15:10.998Z,1.27
2023-03-16T15:17:37.672Z,0.88
2023-03-16T15:20:05.306Z,1.42
2023-03-16T15:22:37.738Z,0.90
2023-03-16T15:25:20.646Z,0.80
2023-03-16T15:27:48.230Z,0.93
2023-03-16T15:30:21.781Z,1.33
2023-03-16T15:32:48.668Z,1.30
2023-03-16T15:35:16.884Z,0.80
2023-03-16T15:37:44.420Z,1.10
2023-03-16T15:40:23.619Z,1.38
2023-03-16T15:42:50.763Z,0.95
2023-03-16T15:45:20.729Z,1.10
2023-03-16T15:47:49.123Z,1.13
2023-03-16T15:50:18.116Z,1.00
2023-03-16T15:52:49.340Z,1.23
2023-03-16T15:55:22.522Z,1.15
2023-03-16T15:57:56.544Z,1.20
2023-03-16T16:00:33.120Z,1.10
2023-03-16T16:03:00.779Z,1.10
2023-03-16T16:05:28.162Z,1.10
2023-03-16T16:07:55.331Z,1.30
2023-03-16T16:10:22.909Z,1.27
2023-03-16T16:12:51.542Z,1.30
2023-03-16T16:15:27.294Z,1.33
2023-03-16T16:18:19.219Z,1.20
2023-03-16T16:20:41.980Z,1.35
2023-03-16T16:23:10.470Z,1.20
2023-03-16T16:25:41.347Z,1.73
2023-03-16T16:28:16.443Z,0.98
2023-03-16T16:30:44.232Z,1.42
2023-03-16T16:33:25.745Z,1.35
2023-03-16T16:35:57.631Z,0.90
2023-03-16T16:38:24.815Z,1.25
2023-03-16T16:40:53.286Z,1.40
2023-03-16T16:43:52.203Z,1.13
2023-03-16T16:46:24.379Z,0.95
2023-03-16T16:49:05.724Z,1.30
2023-03-16T16:51:33.266Z,1.08
2023-03-16T16:54:02.066Z,1.10
2023-03-16T16:56:35.083Z,1.30
2023-03-16T16:59:16.759Z,3.47
2023-03-16T17:01:44.512Z,5.18
2023-03-16T17:04:20.818Z,4.20
2023-03-16T17:06:47.930Z,4.20
2023-03-16T17:09:15.123Z,3.10
2023-03-16T17:11:43.711Z,3.40
2023-03-16T17:14:16.871Z,2.85
2023-03-16T17:16:43.547Z,3.17
2023-03-16T17:19:22.349Z,2.95
2023-03-16T17:21:52.523Z,2.97
2023-03-16T17:24:19.218Z,2.67
2023-03-16T17:26:48.812Z,2.05
2023-03-16T17:29:28.251Z,2.30
2023-03-16T17:31:54.942Z,2.00
2023-03-16T17:34:27.800Z,1.98
2023-03-16T17:36:55.704Z,2.45
2023-03-16T17:39:24.808Z,1.73
2023-03-16T17:42:07.130Z,1.88
2023-03-16T17:44:37.138Z,1.90
2023-03-16T17:47:11.406Z,2.28
2023-03-16T17:49:40.176Z,1.42
2023-03-16T17:52:21.500Z,1.75
2023-03-16T17:54:49.877Z,1.45
2023-03-16T17:57:19.862Z,1.80
2023-03-16T17:59:47.140Z,1.30
2023-03-16T18:02:32.363Z,1.50
2023-03-16T18:05:00.198Z,1.50
2023-03-16T18:07:27.019Z,1.35
2023-03-16T18:09:53.691Z,1.40
2023-03-16T18:12:20.641Z,1.33
2023-03-16T18:14:47.914Z,1.73
2023-03-16T18:17:26.681Z,1.38
2023-03-16T18:19:53.693Z,1.17
2023-03-16T18:22:24.244Z,1.58
2023-03-16T18:24:53.069Z,1.13
2023-03-16T18:27:20.553Z,1.38
2023-03-16T18:29:48.103Z,1.40
2023-03-16T18:32:22.911Z,1.50
2023-03-16T18:34:50.830Z,1.27
2023-03-16T18:37:21.130Z,1.30
2023-03-16T18:39:48.179Z,1.40
2023-03-16T18:42:27.592Z,1.50
2023-03-16T18:44:54.568Z,1.60
2023-03-16T18:47:23.435Z,1.42
2023-03-16T18:49:53.945Z,1.67
2023-03-16T18:52:26.280Z,1.50
2023-03-16T18:54:53.298Z,1.50
2023-03-16T18:57:26.302Z,1.80
2023-03-16T18:59:53.672Z,1.58
2023-03-16T19:02:39.458Z,1.88
2023-03-16T19:05:33.739Z,1.88
2023-03-16T19:08:00.711Z,1.75
2023-03-16T19:10:49.461Z,2.10
2023-03-16T19:13:20.903Z,1.70
2023-03-16T19:15:49.281Z,2.00
2023-03-16T19:18:16.892Z,2.03
2023-03-16T19:20:47.846Z,1.65
2023-03-16T19:23:23.495Z,1.98
2023-03-16T19:25:51.404Z,1.70
2023-03-16T19:28:33.643Z,1.65
2023-03-16T19:31:01.922Z,2.00
2023-03-16T19:33:29.374Z,1.80
2023-03-16T19:35:56.848Z,2.08
2023-03-16T19:38:24.804Z,1.77
2023-03-16T19:40:59.672Z,2.20
2023-03-16T19:43:28.455Z,2.00
2023-03-16T19:45:56.403Z,1.85
2023-03-16T19:48:33.094Z,1.92
2023-03-16T19:51:00.190Z,2.00
2023-03-16T19:53:27.331Z,1.80
2023-03-16T19:55:54.123Z,1.65
2023-03-16T19:58:34.512Z,1.90
2023-03-16T20:01:01.987Z,1.73
2023-03-16T20:03:38.524Z,1.83
2023-03-16T20:06:05.417Z,1.88
2023-03-16T20:08:32.167Z,1.80
2023-03-16T20:11:08.610Z,1.85
2023-03-16T20:13:36.250Z,1.90
2023-03-16T20:16:03.471Z,2.08
2023-03-16T20:18:30.391Z,1.70
2023-03-16T20:20:57.228Z,1.80
2023-03-16T20:23:26.549Z,1.67
2023-03-16T20:25:57.060Z,1.50
2023-03-16T20:28:36.721Z,1.52
2023-03-16T20:31:07.928Z,1.80
2023-03-16T20:33:34.732Z,1.67
2023-03-16T20:36:01.810Z,1.90
2023-03-16T20:38:28.543Z,1.80
2023-03-16T20:40:55.899Z,1.70
2023-03-16T20:43:28.428Z,1.40
2023-03-16T20:45:58.168Z,1.70
2023-03-16T20:48:26.018Z,1.75
2023-03-16T20:50:53.864Z,1.67
2023-03-16T20:53:21.872Z,1.90
2023-03-16T20:55:50.147Z,1.90
2023-03-16T20:58:19.895Z,1.90
2023-03-16T21:00:50.034Z,1.80
2023-03-16T21:03:23.086Z,1.80
2023-03-16T21:05:51.626Z,1.98
2023-03-16T21:08:19.831Z,1.85
2023-03-16T21:10:48.911Z,1.60
2023-03-16T21:13:20.357Z,1.85
2023-03-16T21:15:49.878Z,1.60
2023-03-16T21:18:21.566Z,1.60
2023-03-16T21:20:50.061Z,1.42
2023-03-16T21:23:22.386Z,1.67
2023-03-16T21:25:50.947Z,1.75
2023-03-16T21:28:19.913Z,1.80
2023-03-16T21:30:49.081Z,1.77
2023-03-16T21:33:31.502Z,1.50
2023-03-16T21:36:00.395Z,1.90
2023-03-16T21:38:29.174Z,1.80
2023-03-16T21:40:56.793Z,1.95
2023-03-16T21:43:24.187Z,1.70
2023-03-16T21:45:51.953Z,1.80
2023-03-16T21:48:29.868Z,2.20
2023-03-16T21:50:57.348Z,1.90
2023-03-16T21:53:28.647Z,1.50
2023-03-16T21:55:57.109Z,1.70
2023-03-16T21:58:24.372Z,1.40
2023-03-16T22:00:52.909Z,1.67
2023-03-16T22:03:50.488Z,1.70
2023-03-16T22:06:17.933Z,1.63
2023-03-16T22:08:44.737Z,1.50
2023-03-16T22:11:18.102Z,1.83
2023-03-16T22:13:45.079Z,1.45
2023-03-16T22:16:17.373Z,1.70
2023-03-16T22:18:46.777Z,1.67
2023-03-16T22:21:33.690Z,1.58
2023-03-16T22:24:01.765Z,1.50
2023-03-16T22:26:29.380Z,1.60
2023-03-16T22:28:57.217Z,1.40
2023-03-16T22:31:34.377Z,1.65
2023-03-16T22:34:03.422Z,1.73
2023-03-16T22:36:32.220Z,1.40
2023-03-16T22:39:02.427Z,1.52
2023-03-16T22:41:29.963Z,1.55
2023-03-16T22:43:57.045Z,1.90
2023-03-16T22:46:28.515Z,1.75
2023-03-16T22:48:56.162Z,1.73
2023-03-16T22:51:31.463Z,1.90
2023-03-16T22:54:04.570Z,1.52
2023-03-16T22:56:32.541Z,1.52
2023-03-16T22:59:02.787Z,1.52
2023-03-16T23:01:34.518Z,1.70
2023-03-16T23:04:02.035Z,1.50
2023-03-16T23:06:31.575Z,1.70
2023-03-16T23:08:59.179Z,1.95
2023-03-16T23:11:29.159Z,1.63
2023-03-16T23:13:56.000Z,1.77
2023-03-16T23:16:30.363Z,1.58
2023-03-16T23:18:57.579Z,1.70
2023-03-16T23:21:26.329Z,1.70
2023-03-16T23:24:03.185Z,1.52
2023-03-16T23:26:31.850Z,1.80
2023-03-16T23:28:59.574Z,1.70
2023-03-16T23:31:27.206Z,2.00
2023-03-16T23:33:54.122Z,1.50
2023-03-16T23:36:24.386Z,1.80
2023-03-16T23:38:51.879Z,1.63
2023-03-16T23:41:22.663Z,1.60
2023-03-16T23:43:50.703Z,2.00
2023-03-16T23:46:20.282Z,1.88
2023-03-16T23:48:49.154Z,1.80
2023-03-16T23:51:30.756Z,1.83
2023-03-16T23:53:58.032Z,1.65
2023-03-16T23:56:27.005Z,1.67
2023-03-16T23:58:54.674Z,2.03
